createdAt,value
2023-02-24T00:01:00.542Z,100143.94
2023-02-24T00:03:27.280Z,100148.88
2023-02-24T00:05:54.002Z,100139.78
2023-02-24T00:08:20.767Z,100132.44
2023-02-24T00:10:47.492Z,100127.63
2023-02-24T00:13:15.594Z,100130.81
2023-02-24T00:15:42.267Z,100130.59
2023-02-24T00:18:08.975Z,100116.50
2023-02-24T00:20:35.644Z,100132.81
2023-02-24T00:23:02.403Z,100117.28
2023-02-24T00:25:29.138Z,100134.47
2023-02-24T00:27:55.839Z,100123.66
2023-02-24T00:30:23.921Z,100123.75
2023-02-24T00:32:50.772Z,100112.06
2023-02-24T00:35:17.592Z,100116.59
2023-02-24T00:37:44.336Z,100121.22
2023-02-24T00:40:12.354Z,100105.00
2023-02-24T00:42:39.076Z,100113.59
2023-02-24T00:45:07.265Z,100094.88
2023-02-24T00:47:38.690Z,100107.13
2023-02-24T00:50:06.420Z,100084.41
2023-02-24T00:52:33.126Z,100092.53
2023-02-24T00:54:59.862Z,100096.00
2023-02-24T00:57:26.604Z,100094.44
2023-02-24T00:59:53.309Z,100089.16
2023-02-24T01:02:20.256Z,100091.59
2023-02-24T01:04:48.373Z,100076.41
2023-02-24T01:07:15.051Z,100073.41
2023-02-24T01:09:42.111Z,100077.63
2023-02-24T01:12:10.591Z,100077.09
2023-02-24T01:14:37.320Z,100088.34
2023-02-24T01:17:04.795Z,100070.19
2023-02-24T01:19:33.061Z,100076.09
2023-02-24T01:22:04.174Z,100069.19
2023-02-24T01:24:33.475Z,100069.88
2023-02-24T01:27:00.335Z,100062.16
2023-02-24T01:29:27.025Z,100078.28
2023-02-24T01:31:54.321Z,100079.94
2023-02-24T01:34:21.095Z,100082.88
2023-02-24T01:36:47.875Z,100067.94
2023-02-24T01:39:15.945Z,100066.16
2023-02-24T01:41:44.876Z,100065.63
2023-02-24T01:44:44.639Z,100074.81
2023-02-24T01:47:12.332Z,100061.22
2023-02-24T01:49:42.825Z,100066.03
2023-02-24T01:52:13.545Z,100062.78
2023-02-24T01:54:46.343Z,100050.44
2023-02-24T01:57:17.160Z,100061.53
2023-02-24T01:59:46.483Z,100066.50
2023-02-24T02:02:15.322Z,100059.75
2023-02-24T02:04:46.291Z,100053.75
2023-02-24T02:07:15.512Z,100067.34
2023-02-24T02:09:45.516Z,100054.88
2023-02-24T02:12:13.019Z,100056.03
2023-02-24T02:14:43.636Z,100049.13
2023-02-24T02:17:22.054Z,100052.28
2023-02-24T02:20:19.415Z,100044.78
2023-02-24T02:23:31.138Z,100067.16
2023-02-24T02:26:19.938Z,100054.72
2023-02-24T02:29:08.889Z,100052.53
2023-02-24T02:31:56.766Z,100053.78
2023-02-24T02:34:36.861Z,100038.53
2023-02-24T02:37:10.389Z,100032.09
2023-02-24T02:39:48.960Z,100050.38
2023-02-24T02:42:25.394Z,100031.81
2023-02-24T02:44:59.366Z,100028.81
2023-02-24T02:47:31.232Z,100038.34
2023-02-24T02:50:06.603Z,100037.28
2023-02-24T02:52:38.188Z,100027.28
2023-02-24T02:55:09.828Z,100017.91
2023-02-24T02:57:40.029Z,100030.28
2023-02-24T03:00:12.780Z,100030.41
2023-02-24T03:02:43.293Z,100020.00
2023-02-24T03:05:15.537Z,100023.75
2023-02-24T03:07:47.738Z,100025.72
2023-02-24T03:10:17.698Z,100029.94
2023-02-24T03:12:46.888Z,100022.56
2023-02-24T03:15:15.604Z,100022.41
2023-02-24T03:17:45.493Z,100011.78
2023-02-24T03:20:18.845Z,100019.78
2023-02-24T03:22:49.622Z,100020.81
2023-02-24T03:25:16.601Z,100011.78
2023-02-24T03:27:47.042Z,100038.81
2023-02-24T03:30:18.711Z,100028.09
2023-02-24T03:32:51.651Z,100028.31
2023-02-24T03:35:22.578Z,100034.75
2023-02-24T03:37:49.928Z,100018.66
2023-02-24T03:40:17.678Z,100013.78
2023-02-24T03:42:48.253Z,100014.13
2023-02-24T03:45:15.892Z,100022.91
2023-02-24T03:47:43.344Z,100012.72
2023-02-24T03:50:13.414Z,100010.81
2023-02-24T03:52:47.440Z,100026.50
2023-02-24T03:55:26.540Z,100010.34
2023-02-24T03:58:03.826Z,100019.06
2023-02-24T04:00:38.537Z,100008.09
2023-02-24T04:03:13.904Z,100001.50
2023-02-24T04:05:48.713Z,100005.75
2023-02-24T04:08:21.222Z,100002.28
2023-02-24T04:10:53.418Z,100025.44
2023-02-24T04:13:27.989Z,100010.50
2023-02-24T04:16:00.839Z,100015.81
2023-02-24T04:18:31.417Z,100021.63
2023-02-24T04:21:01.757Z,100003.19
2023-02-24T04:23:32.571Z,100005.41
2023-02-24T04:26:00.276Z,100022.31
2023-02-24T04:28:28.691Z,100017.88
2023-02-24T04:31:00.493Z,100015.06
2023-02-24T04:33:27.698Z,100002.06
2023-02-24T04:35:54.671Z,100003.56
2023-02-24T04:38:21.590Z,100011.19
2023-02-24T04:40:49.853Z,100000.34
2023-02-24T04:43:16.821Z,100016.38
2023-02-24T04:45:43.523Z,99999.63
2023-02-24T04:48:10.714Z,100016.50
2023-02-24T04:50:37.478Z,100000.09
2023-02-24T04:53:06.687Z,100000.41
2023-02-24T04:55:36.671Z,100003.91
2023-02-24T04:58:04.734Z,99982.13
2023-02-24T05:00:31.556Z,99973.78
2023-02-24T05:02:58.295Z,99990.03
2023-02-24T05:05:25.674Z,99992.56
2023-02-24T05:07:52.802Z,99973.25
2023-02-24T05:10:19.729Z,99968.66
2023-02-24T05:12:46.438Z,99962.22
2023-02-24T05:15:14.546Z,99984.34
2023-02-24T05:17:41.238Z,99975.53
2023-02-24T05:20:09.781Z,99979.88
2023-02-24T05:22:36.466Z,99978.69
2023-02-24T05:25:03.240Z,99972.91
2023-02-24T05:27:29.956Z,99986.63
2023-02-24T05:29:56.655Z,99989.94
2023-02-24T05:32:24.842Z,99978.56
2023-02-24T05:34:51.630Z,99973.59
2023-02-24T05:37:18.389Z,99984.34
2023-02-24T05:39:47.069Z,99970.75
2023-02-24T05:42:13.757Z,99970.44
2023-02-24T05:44:40.414Z,99966.81
2023-02-24T05:47:07.167Z,99958.44
2023-02-24T05:49:35.692Z,99967.53
2023-02-24T05:52:04.882Z,99969.69
2023-02-24T05:54:34.345Z,99968.19
2023-02-24T05:57:03.113Z,99961.69
2023-02-24T05:59:30.174Z,99959.25
2023-02-24T06:01:56.882Z,99959.69
2023-02-24T06:04:23.567Z,99985.91
2023-02-24T06:06:51.628Z,99991.94
2023-02-24T06:09:19.842Z,99975.53
2023-02-24T06:11:46.551Z,99979.28
2023-02-24T06:14:13.320Z,99976.41
2023-02-24T06:16:41.741Z,99968.84
2023-02-24T06:19:10.127Z,99991.44
2023-02-24T06:21:38.787Z,99986.16
2023-02-24T06:24:10.513Z,99974.75
2023-02-24T06:26:37.202Z,99983.16
2023-02-24T06:29:03.986Z,99980.69
2023-02-24T06:31:30.824Z,99978.16
2023-02-24T06:33:57.986Z,99985.19
2023-02-24T06:36:37.592Z,99986.94
2023-02-24T06:39:06.502Z,99978.56
2023-02-24T06:41:34.403Z,99972.38
2023-02-24T06:44:01.148Z,99986.22
2023-02-24T06:46:28.097Z,99986.47
2023-02-24T06:48:55.269Z,99978.88
2023-02-24T06:51:22.237Z,99979.78
2023-02-24T06:53:50.540Z,99968.84
2023-02-24T06:56:32.449Z,99985.81
2023-02-24T07:58:44.630Z,99967.97
2023-02-24T08:01:16.047Z,99941.63
2023-02-24T08:03:47.743Z,99944.38
2023-02-24T08:06:14.473Z,99938.94
2023-02-24T08:16:35.447Z,99944.22
2023-02-24T08:19:02.104Z,99922.25
2023-02-24T08:21:28.769Z,99923.97
2023-02-24T08:23:55.477Z,99938.44
2023-02-24T08:26:22.189Z,99928.31
2023-02-24T08:28:48.920Z,99926.19
2023-02-24T08:31:15.695Z,99919.00
2023-02-24T08:33:43.857Z,99916.34
2023-02-24T08:36:10.493Z,99914.00
2023-02-24T08:38:37.355Z,99913.50
2023-02-24T08:41:04.302Z,99917.84
2023-02-24T08:43:37.284Z,99913.09
2023-02-24T08:46:14.216Z,99909.00
2023-02-24T08:48:44.469Z,99902.31
2023-02-24T08:51:14.023Z,99908.25
2023-02-24T08:53:40.888Z,99906.66
2023-02-24T08:56:09.840Z,99890.56
2023-02-24T08:58:36.668Z,99904.03
2023-02-24T09:01:03.646Z,99890.19
2023-02-24T09:03:30.423Z,99901.97
2023-02-24T09:06:00.818Z,99896.25
2023-02-24T09:08:27.541Z,99887.03
2023-02-24T09:10:54.210Z,99890.94
2023-02-24T09:13:20.923Z,99878.13
2023-02-24T09:15:48.078Z,99883.56
2023-02-24T09:18:14.913Z,99875.53
2023-02-24T09:20:41.662Z,99869.31
2023-02-24T09:23:12.681Z,99879.28
2023-02-24T09:25:39.842Z,99870.19
2023-02-24T09:28:08.557Z,99864.69
2023-02-24T09:30:36.899Z,99865.69
2023-02-24T09:33:09.049Z,99869.19
2023-02-24T09:35:35.850Z,99876.63
2023-02-24T09:38:03.768Z,99858.34
2023-02-24T09:40:33.056Z,99853.38
2023-02-24T09:42:59.831Z,99863.88
2023-02-24T09:45:26.912Z,99860.47
2023-02-24T09:47:54.489Z,99864.34
2023-02-24T09:50:55.570Z,99860.63
2023-02-24T09:53:17.456Z,99854.09
2023-02-24T09:55:54.020Z,99843.78
2023-02-24T09:58:43.457Z,99843.63
2023-02-24T10:01:23.755Z,99837.50
2023-02-24T10:03:56.327Z,99825.19
2023-02-24T10:06:26.402Z,99838.50
2023-02-24T10:08:57.796Z,99818.75
2023-02-24T10:11:29.382Z,99807.44
2023-02-24T10:14:03.536Z,99810.97
2023-02-24T10:16:32.188Z,99819.00
2023-02-24T10:19:05.563Z,99807.66
2023-02-24T10:21:39.217Z,99797.41
2023-02-24T10:24:16.064Z,99802.56
2023-02-24T10:27:00.922Z,99792.22
2023-02-24T10:29:50.593Z,99785.84
2023-02-24T10:32:27.664Z,99789.91
2023-02-24T10:34:54.608Z,99771.94
2023-02-24T10:37:28.667Z,99790.00
2023-02-24T10:39:57.472Z,99766.16
2023-02-24T10:42:27.411Z,99765.34
2023-02-24T10:45:17.344Z,99750.03
2023-02-24T10:47:49.551Z,99749.72
2023-02-24T10:50:21.859Z,99745.63
2023-02-24T10:52:49.103Z,99761.84
2023-02-24T10:55:24.365Z,99741.94
2023-02-24T10:57:58.940Z,99746.75
2023-02-24T11:00:28.342Z,99733.38
2023-02-24T11:02:55.321Z,99717.56
2023-02-24T11:05:23.089Z,99715.56
2023-02-24T11:07:49.871Z,99726.13
2023-02-24T11:10:18.764Z,99717.09
2023-02-24T11:12:47.302Z,99702.19
2023-02-24T11:15:21.910Z,99701.75
2023-02-24T11:17:50.741Z,99705.88
2023-02-24T11:20:33.647Z,99681.56
2023-02-24T11:23:09.062Z,99696.75
2023-02-24T11:25:37.537Z,99678.16
2023-02-24T11:28:04.387Z,99677.94
2023-02-24T11:30:42.240Z,99689.50
2023-02-24T11:33:27.997Z,99670.72
2023-02-24T11:36:03.626Z,99669.66
2023-02-24T11:38:39.207Z,99667.84
2023-02-24T11:41:15.436Z,99656.81
2023-02-24T11:43:48.781Z,99637.84
2023-02-24T11:46:20.156Z,99640.31
2023-02-24T11:48:51.401Z,99638.59
2023-02-24T11:51:20.863Z,99636.75
2023-02-24T11:53:50.920Z,99628.81
2023-02-24T11:56:22.769Z,99616.75
2023-02-24T11:58:57.535Z,99609.72
2023-02-24T12:01:31.350Z,99595.50
2023-02-24T12:04:10.579Z,99601.25
2023-02-24T12:06:41.389Z,99604.13
2023-02-24T12:09:13.707Z,99606.00
2023-02-24T12:11:47.237Z,99606.72
2023-02-24T12:14:21.581Z,99598.53
2023-02-24T12:16:56.667Z,99589.91
2023-02-24T12:19:28.982Z,99584.56
2023-02-24T12:22:01.518Z,99573.22
2023-02-24T12:24:28.837Z,99574.25
2023-02-24T12:27:03.735Z,99568.47
2023-02-24T12:29:46.937Z,99571.59
2023-02-24T12:32:24.163Z,99570.66
2023-02-24T12:35:01.283Z,99567.94
2023-02-24T12:37:52.783Z,99561.19
2023-02-24T12:40:30.916Z,99564.19
2023-02-24T12:43:11.566Z,99568.47
2023-02-24T12:45:48.173Z,99559.84
2023-02-24T12:48:31.918Z,99553.06
2023-02-24T12:51:05.871Z,99551.91
2023-02-24T12:53:43.752Z,99556.63
2023-02-24T12:56:18.179Z,99554.59
2023-02-24T12:58:47.971Z,99553.31
2023-02-24T13:01:22.290Z,99564.19
2023-02-24T13:04:07.257Z,99553.97
2023-02-24T13:06:52.650Z,99542.59
2023-02-24T13:09:28.241Z,99546.78
2023-02-24T13:12:01.402Z,99550.34
2023-02-24T13:14:31.818Z,99536.28
2023-02-24T13:17:18.622Z,99570.41
2023-02-24T13:19:48.195Z,99555.94
2023-02-24T13:22:25.752Z,99559.50
2023-02-24T13:25:04.903Z,99541.13
2023-02-24T13:27:34.967Z,99545.72
2023-02-24T13:30:06.883Z,99535.81
2023-02-24T13:32:36.856Z,99540.00
2023-02-24T13:35:26.920Z,99531.13
2023-02-24T13:37:54.394Z,99537.13
2023-02-24T13:40:24.954Z,99537.13
2023-02-24T13:43:00.031Z,99539.03
2023-02-24T13:45:28.533Z,99533.53
2023-02-24T13:48:23.109Z,99544.91
2023-02-24T13:51:08.162Z,99531.38
2023-02-24T13:53:50.944Z,99528.50
2023-02-24T13:56:30.842Z,99540.09
2023-02-24T13:59:14.344Z,99539.38
2023-02-24T14:01:50.006Z,99518.88
2023-02-24T14:04:20.636Z,99529.13
2023-02-24T14:06:52.384Z,99511.00
2023-02-24T14:09:23.736Z,99516.75
2023-02-24T14:11:54.834Z,99517.34
2023-02-24T14:14:22.079Z,99503.44
2023-02-24T14:16:50.920Z,99516.22
2023-02-24T14:19:17.845Z,99496.06
2023-02-24T14:21:51.074Z,99499.16
2023-02-24T14:24:18.714Z,99481.28
2023-02-24T14:26:47.801Z,99497.53
2023-02-24T14:29:18.987Z,99472.00
2023-02-24T14:31:48.666Z,99482.88
2023-02-24T14:34:19.933Z,99490.50
2023-02-24T14:36:48.288Z,99492.38
2023-02-24T14:39:21.218Z,99470.38
2023-02-24T14:41:49.172Z,99494.06
2023-02-24T14:44:22.435Z,99482.28
2023-02-24T14:46:51.674Z,99474.81
2023-02-24T14:49:23.876Z,99470.91
2023-02-24T14:51:57.936Z,99465.97
2023-02-24T14:54:38.665Z,99457.88
2023-02-24T14:57:06.319Z,99462.25
2023-02-24T14:59:37.149Z,99464.19
2023-02-24T15:02:05.114Z,99455.41
2023-02-24T15:04:35.744Z,99448.84
2023-02-24T15:07:05.479Z,99463.06
2023-02-24T15:09:40.137Z,99453.81
2023-02-24T15:12:17.005Z,99449.44
2023-02-24T15:14:50.116Z,99435.78
2023-02-24T15:17:19.718Z,99452.19
2023-02-24T15:19:46.492Z,99429.44
2023-02-24T15:22:21.959Z,99439.09
2023-02-24T15:24:51.467Z,99455.75
2023-02-24T15:27:25.519Z,99439.81
2023-02-24T15:30:01.018Z,99424.50
2023-02-24T15:32:31.734Z,99430.22
2023-02-24T15:34:58.896Z,99415.47
2023-02-24T15:37:27.691Z,99436.22
2023-02-24T15:40:07.194Z,99424.88
2023-02-24T15:42:35.364Z,99413.97
2023-02-24T15:45:05.077Z,99408.66
2023-02-24T15:47:42.254Z,99402.75
2023-02-24T15:50:10.348Z,99419.66
2023-02-24T15:52:37.457Z,99408.06
2023-02-24T15:55:06.942Z,99412.78
2023-02-24T15:57:34.145Z,99394.28
2023-02-24T16:00:00.871Z,99399.25
2023-02-24T16:02:28.306Z,99385.91
2023-02-24T16:04:54.982Z,99385.41
2023-02-24T16:07:24.060Z,99387.19
2023-02-24T16:09:52.992Z,99398.78
2023-02-24T16:12:24.019Z,99396.63
2023-02-24T16:14:51.182Z,99389.06
2023-02-24T16:17:26.400Z,99376.81
2023-02-24T16:19:53.082Z,99389.75
2023-02-24T16:22:19.817Z,99377.66
2023-02-24T16:24:46.559Z,99381.31
2023-02-24T16:27:16.134Z,99399.22
2023-02-24T16:29:44.247Z,99375.25
2023-02-24T16:32:12.713Z,99390.47
2023-02-24T16:34:39.960Z,99390.53
2023-02-24T16:37:16.513Z,99389.09
2023-02-24T16:39:43.218Z,99386.84
2023-02-24T16:42:11.808Z,99371.31
2023-02-24T16:44:38.902Z,99379.75
2023-02-24T16:47:08.169Z,99380.34
2023-02-24T16:49:35.036Z,99378.16
2023-02-24T16:52:01.685Z,99383.91
2023-02-24T16:54:28.373Z,99386.44
2023-02-24T16:56:55.105Z,99403.09
2023-02-24T16:59:21.859Z,99385.72
2023-02-24T17:01:48.608Z,99386.72
2023-02-24T17:04:16.728Z,99386.44
2023-02-24T17:06:43.450Z,99372.91
2023-02-24T17:09:10.229Z,99389.84
2023-02-24T17:11:36.907Z,99384.34
2023-02-24T17:14:03.575Z,99377.69
2023-02-24T17:16:30.341Z,99372.53
2023-02-24T17:18:57.053Z,99389.66
2023-02-24T17:21:29.199Z,99376.41
2023-02-24T17:23:56.869Z,99375.81
2023-02-24T17:26:24.073Z,99391.50
2023-02-24T17:28:50.947Z,99401.28
2023-02-24T17:31:17.797Z,99380.22
2023-02-24T17:33:44.850Z,99393.88
2023-02-24T17:36:13.771Z,99387.31
2023-02-24T17:38:42.031Z,99386.25
2023-02-24T17:41:27.177Z,99383.00
2023-02-24T17:43:54.605Z,99369.34
2023-02-24T17:46:21.937Z,99377.13
2023-02-24T17:48:48.911Z,99379.34
2023-02-24T17:51:16.503Z,99382.94
2023-02-24T17:53:45.175Z,99371.88
2023-02-24T17:56:12.109Z,99372.50
2023-02-24T17:58:39.431Z,99377.81
2023-02-24T18:01:06.953Z,99358.09
2023-02-24T18:03:34.483Z,99381.63
2023-02-24T18:06:03.291Z,99366.91
2023-02-24T18:08:30.451Z,99352.00
2023-02-24T18:10:59.104Z,99360.47
2023-02-24T18:13:26.276Z,99356.78
2023-02-24T18:15:53.337Z,99374.69
2023-02-24T18:18:20.238Z,99367.94
2023-02-24T18:20:47.010Z,99354.88
2023-02-24T18:23:14.526Z,99352.66
2023-02-24T18:25:41.255Z,99345.13
2023-02-24T18:28:09.520Z,99344.78
2023-02-24T18:30:38.667Z,99331.97
2023-02-24T18:33:05.660Z,99337.88
2023-02-24T18:35:32.646Z,99345.16
2023-02-24T18:37:59.421Z,99333.84
2023-02-24T18:40:27.362Z,99332.56
2023-02-24T18:42:54.459Z,99333.41
2023-02-24T18:45:23.549Z,99332.44
2023-02-24T18:47:51.957Z,99328.50
2023-02-24T18:50:19.020Z,99336.22
2023-02-24T18:52:45.762Z,99341.25
2023-02-24T18:55:12.423Z,99334.13
2023-02-24T18:57:39.110Z,99336.22
2023-02-24T19:00:07.188Z,99334.25
2023-02-24T19:02:35.305Z,99333.91
2023-02-24T19:05:02.147Z,99320.25
2023-02-24T19:07:28.825Z,99327.25
2023-02-24T19:09:55.573Z,99314.81
2023-02-24T19:12:22.281Z,99326.25
2023-02-24T19:14:51.243Z,99327.78
2023-02-24T19:17:19.029Z,99320.38
2023-02-24T19:19:47.187Z,99307.69
2023-02-24T19:22:13.949Z,99311.53
2023-02-24T19:24:40.666Z,99322.84
2023-02-24T19:27:07.449Z,99311.50
2023-02-24T19:29:34.108Z,99312.25
2023-02-24T19:32:01.036Z,99306.69
2023-02-24T19:34:27.808Z,99326.53
2023-02-24T19:36:55.927Z,99314.91
2023-02-24T19:39:22.618Z,99313.69
2023-02-24T19:41:50.006Z,99314.19
2023-02-24T19:44:16.901Z,99316.63
2023-02-24T19:46:43.619Z,99302.69
2023-02-24T19:49:10.299Z,99294.00
2023-02-24T19:51:37.085Z,99310.50
2023-02-24T19:54:05.504Z,99311.28
2023-02-24T19:56:34.213Z,99310.50
2023-02-24T19:59:01.944Z,99305.94
2023-02-24T20:01:29.503Z,99295.34
2023-02-24T20:03:57.709Z,99286.41
2023-02-24T20:06:26.798Z,99301.50
2023-02-24T20:08:54.380Z,99296.66
2023-02-24T20:11:23.651Z,99294.25
2023-02-24T20:13:52.010Z,99286.41
2023-02-24T20:16:20.384Z,99286.41
2023-02-24T20:18:47.226Z,99289.09
2023-02-24T20:21:13.997Z,99280.22
2023-02-24T20:23:41.137Z,99279.09
2023-02-24T20:26:10.098Z,99264.19
2023-02-24T20:28:38.224Z,99263.56
2023-02-24T20:31:08.499Z,99261.59
2023-02-24T20:33:35.836Z,99261.47
2023-02-24T20:36:07.786Z,99261.41
2023-02-24T20:38:34.558Z,99259.41
2023-02-24T20:41:01.480Z,99258.56
2023-02-24T20:43:28.467Z,99258.09
2023-02-24T20:45:56.675Z,99259.94
2023-02-24T20:48:24.023Z,99257.34
2023-02-24T20:50:51.395Z,99261.41
2023-02-24T20:53:18.228Z,99258.16
2023-02-24T20:55:45.100Z,99232.69
2023-02-24T20:58:14.155Z,99252.22
2023-02-24T21:00:41.086Z,99231.44
2023-02-24T21:03:09.371Z,99235.47
2023-02-24T21:05:36.191Z,99236.81
2023-02-24T21:08:03.254Z,99246.53
2023-02-24T21:10:29.968Z,99229.56
2023-02-24T21:12:56.791Z,99228.50
2023-02-24T21:15:23.607Z,99221.63
2023-02-24T21:17:50.546Z,99204.63
2023-02-24T21:20:19.067Z,99220.41
2023-02-24T21:22:45.950Z,99230.97
2023-02-24T21:25:12.800Z,99219.59
2023-02-24T21:27:39.722Z,99215.69
2023-02-24T21:30:08.220Z,99204.38
2023-02-24T21:32:35.767Z,99203.00
2023-02-24T21:35:02.559Z,99187.81
2023-02-24T21:37:30.682Z,99200.41
2023-02-24T21:39:59.564Z,99204.75
2023-02-24T21:42:26.300Z,99191.31
2023-02-24T21:44:53.019Z,99195.28
2023-02-24T21:47:19.957Z,99171.53
2023-02-24T21:49:48.235Z,99166.91
2023-02-24T21:52:14.897Z,99186.34
2023-02-24T21:54:42.995Z,99180.69
2023-02-24T21:57:09.681Z,99180.84
2023-02-24T21:59:36.343Z,99182.38
2023-02-24T22:02:03.249Z,99162.94
2023-02-24T22:04:30.034Z,99172.97
2023-02-24T22:06:56.736Z,99169.53
2023-02-24T22:09:23.457Z,99175.31
2023-02-24T22:11:51.549Z,99155.00
2023-02-24T22:14:18.323Z,99155.53
2023-02-24T22:16:45.131Z,99135.75
2023-02-24T22:19:12.486Z,99138.44
2023-02-24T22:21:40.741Z,99138.16
2023-02-24T22:24:08.842Z,99130.44
2023-02-24T22:26:35.619Z,99133.59
2023-02-24T22:29:03.895Z,99112.59
2023-02-24T22:31:32.560Z,99114.47
2023-02-24T22:33:59.609Z,99101.47
2023-02-24T22:36:28.352Z,99107.03
2023-02-24T22:38:56.469Z,99105.34
2023-02-24T22:41:25.443Z,99074.41
2023-02-24T22:43:52.208Z,99091.78
2023-02-24T22:46:23.301Z,99077.13
2023-02-24T22:48:50.488Z,99070.25
2023-02-24T22:51:17.945Z,99084.00
2023-02-24T22:53:47.902Z,99085.63
2023-02-24T22:56:16.741Z,99076.88
2023-02-24T22:58:43.900Z,99072.72
2023-02-24T23:01:11.871Z,99074.28
2023-02-24T23:03:40.280Z,99078.16
2023-02-24T23:06:08.879Z,99085.63
2023-02-24T23:08:38.454Z,99069.13
2023-02-24T23:11:05.937Z,99080.22
2023-02-24T23:13:33.431Z,99056.47
2023-02-24T23:16:01.197Z,99070.09
2023-02-24T23:18:27.928Z,99041.84
2023-02-24T23:20:58.825Z,99062.44
2023-02-24T23:23:25.996Z,99046.00
2023-02-24T23:25:52.843Z,99029.50
2023-02-24T23:28:19.722Z,99041.50
2023-02-24T23:30:46.853Z,99048.25
2023-02-24T23:33:13.736Z,99043.63
2023-02-24T23:35:40.441Z,99052.66
2023-02-24T23:38:09.516Z,99034.09
2023-02-24T23:40:49.672Z,99041.50
2023-02-24T23:43:17.221Z,99024.88
2023-02-24T23:45:44.057Z,99028.13
2023-02-24T23:48:12.628Z,99026.81
2023-02-24T23:50:40.762Z,99038.63
2023-02-24T23:53:09.161Z,99027.28
2023-02-24T23:55:38.269Z,99029.34
2023-02-24T23:58:05.382Z,99028.50
